sensor_id;sensor_type;location;lat;lon;timestamp;pressure;altitude;pressure_sealevel;temperature;humidity
67545;BME280;54380;47.770;11.150;2023-09-30T00:01:46;95643.16;;;20.32;54.33
67545;BME280;54380;47.770;11.150;2023-09-30T00:04:14;95648.22;;;20.34;54.06
67545;BME280;54380;47.770;11.150;2023-09-30T00:06:40;95650.41;;;20.32;54.17
67545;BME280;54380;47.770;11.150;2023-09-30T00:09:07;95650.22;;;20.28;54.15
67545;BME280;54380;47.770;11.150;2023-09-30T00:11:34;95640.06;;;20.25;54.08
67545;BME280;54380;47.770;11.150;2023-09-30T00:14:01;95632.63;;;20.22;54.23
67545;BME280;54380;47.770;11.150;2023-09-30T00:16:28;95640.22;;;20.15;54.17
67545;BME280;54380;47.770;11.150;2023-09-30T00:18:55;95649.13;;;20.10;54.18
67545;BME280;54380;47.770;11.150;2023-09-30T00:21:23;95645.16;;;20.08;54.49
67545;BME280;54380;47.770;11.150;2023-09-30T00:23:50;95653.19;;;20.08;54.52
67545;BME280;54380;47.770;11.150;2023-09-30T00:26:17;95659.06;;;20.10;54.19
67545;BME280;54380;47.770;11.150;2023-09-30T00:28:46;95650.44;;;20.13;54.33
67545;BME280;54380;47.770;11.150;2023-09-30T00:31:12;95649.84;;;20.16;54.39
67545;BME280;54380;47.770;11.150;2023-09-30T00:33:39;95656.00;;;20.16;54.10
67545;BME280;54380;47.770;11.150;2023-09-30T00:36:07;95648.78;;;20.17;54.05
67545;BME280;54380;47.770;11.150;2023-09-30T00:38:35;95661.09;;;20.18;54.15
67545;BME280;54380;47.770;11.150;2023-09-30T00:41:02;95658.91;;;20.20;53.98
67545;BME280;54380;47.770;11.150;2023-09-30T00:43:28;95655.44;;;20.20;53.88
67545;BME280;54380;47.770;11.150;2023-09-30T00:45:59;95654.63;;;20.19;54.04
67545;BME280;54380;47.770;11.150;2023-09-30T00:48:27;95655.44;;;20.20;54.11
67545;BME280;54380;47.770;11.150;2023-09-30T00:50:55;95659.19;;;20.18;54.18
67545;BME280;54380;47.770;11.150;2023-09-30T00:53:23;95669.78;;;20.10;54.22
67545;BME280;54380;47.770;11.150;2023-09-30T00:55:51;95679.00;;;20.04;54.32
67545;BME280;54380;47.770;11.150;2023-09-30T00:58:18;95669.72;;;19.96;54.66
67545;BME280;54380;47.770;11.150;2023-09-30T01:00:46;95678.69;;;19.86;54.79
67545;BME280;54380;47.770;11.150;2023-09-30T01:03:13;95680.16;;;19.79;55.30
67545;BME280;54380;47.770;11.150;2023-09-30T01:05:41;95671.66;;;19.71;55.13
67545;BME280;54380;47.770;11.150;2023-09-30T01:08:09;95677.09;;;19.66;55.27
67545;BME280;54380;47.770;11.150;2023-09-30T01:10:36;95670.19;;;19.60;55.38
67545;BME280;54380;47.770;11.150;2023-09-30T01:13:04;95666.97;;;19.58;55.62
67545;BME280;54380;47.770;11.150;2023-09-30T01:15:31;95676.13;;;19.57;55.73
67545;BME280;54380;47.770;11.150;2023-09-30T01:17:58;95666.47;;;19.56;55.92
67545;BME280;54380;47.770;11.150;2023-09-30T01:20:25;95655.28;;;19.54;55.84
67545;BME280;54380;47.770;11.150;2023-09-30T01:22:54;95654.44;;;19.53;55.69
67545;BME280;54380;47.770;11.150;2023-09-30T01:25:23;95642.94;;;19.53;55.94
67545;BME280;54380;47.770;11.150;2023-09-30T01:27:51;95652.09;;;19.52;56.26
67545;BME280;54380;47.770;11.150;2023-09-30T01:30:18;95646.50;;;19.48;56.21
67545;BME280;54380;47.770;11.150;2023-09-30T01:32:45;95646.00;;;19.46;56.33
67545;BME280;54380;47.770;11.150;2023-09-30T01:35:14;95643.31;;;19.46;56.28
67545;BME280;54380;47.770;11.150;2023-09-30T01:37:41;95647.06;;;19.45;56.46
67545;BME280;54380;47.770;11.150;2023-09-30T01:40:10;95647.59;;;19.47;56.17
67545;BME280;54380;47.770;11.150;2023-09-30T01:42:37;95651.03;;;19.48;55.99
67545;BME280;54380;47.770;11.150;2023-09-30T01:45:04;95640.13;;;19.44;56.22
67545;BME280;54380;47.770;11.150;2023-09-30T01:47:31;95640.13;;;19.44;56.04
67545;BME280;54380;47.770;11.150;2023-09-30T01:49:58;95641.72;;;19.45;56.37
67545;BME280;54380;47.770;11.150;2023-09-30T01:52:25;95644.19;;;19.42;56.17
67545;BME280;54380;47.770;11.150;2023-09-30T01:54:52;95643.16;;;19.38;55.88
67545;BME280;54380;47.770;11.150;2023-09-30T01:57:19;95643.72;;;19.35;55.97
67545;BME280;54380;47.770;11.150;2023-09-30T01:59:46;95646.41;;;19.35;55.83
67545;BME280;54380;47.770;11.150;2023-09-30T02:02:13;95641.03;;;19.35;55.83
67545;BME280;54380;47.770;11.150;2023-09-30T02:04:40;95635.69;;;19.35;55.73
67545;BME280;54380;47.770;11.150;2023-09-30T02:07:06;95638.69;;;19.33;55.86
67545;BME280;54380;47.770;11.150;2023-09-30T02:09:33;95639.81;;;19.27;55.80
67545;BME280;54380;47.770;11.150;2023-09-30T02:12:00;95640.75;;;19.17;55.79
67545;BME280;54380;47.770;11.150;2023-09-30T02:14:28;95645.47;;;19.01;56.10
67545;BME280;54380;47.770;11.150;2023-09-30T02:16:55;95637.81;;;18.90;56.41
67545;BME280;54380;47.770;11.150;2023-09-30T02:19:22;95643.75;;;18.86;56.36
67545;BME280;54380;47.770;11.150;2023-09-30T02:21:49;95640.28;;;18.86;56.42
67545;BME280;54380;47.770;11.150;2023-09-30T02:24:15;95644.84;;;18.85;56.48
67545;BME280;54380;47.770;11.150;2023-09-30T02:26:42;95648.81;;;18.88;56.52
67545;BME280;54380;47.770;11.150;2023-09-30T02:29:09;95647.72;;;18.89;56.42
67545;BME280;54380;47.770;11.150;2023-09-30T02:31:37;95652.28;;;18.89;56.30
67545;BME280;54380;47.770;11.150;2023-09-30T02:34:05;95648.00;;;18.88;56.56
67545;BME280;54380;47.770;11.150;2023-09-30T02:36:32;95643.19;;;18.90;56.44
67545;BME280;54380;47.770;11.150;2023-09-30T02:38:59;95638.91;;;18.89;56.66
67545;BME280;54380;47.770;11.150;2023-09-30T02:41:27;95638.72;;;18.80;57.16
67545;BME280;54380;47.770;11.150;2023-09-30T02:43:53;95640.44;;;18.65;57.31
67545;BME280;54380;47.770;11.150;2023-09-30T02:46:22;95638.44;;;18.52;58.05
67545;BME280;54380;47.770;11.150;2023-09-30T02:48:50;95641.22;;;18.42;58.24
67545;BME280;54380;47.770;11.150;2023-09-30T02:51:18;95631.34;;;18.37;58.50
67545;BME280;54380;47.770;11.150;2023-09-30T02:53:45;95641.81;;;18.34;58.26
67545;BME280;54380;47.770;11.150;2023-09-30T02:56:14;95642.34;;;18.36;58.15
67545;BME280;54380;47.770;11.150;2023-09-30T02:58:41;95640.97;;;18.38;58.20
67545;BME280;54380;47.770;11.150;2023-09-30T03:01:07;95635.06;;;18.41;58.08
67545;BME280;54380;47.770;11.150;2023-09-30T03:03:39;95633.94;;;18.48;58.32
67545;BME280;54380;47.770;11.150;2023-09-30T03:06:07;95628.88;;;18.46;58.36
67545;BME280;54380;47.770;11.150;2023-09-30T03:08:34;95623.81;;;18.45;58.59
67545;BME280;54380;47.770;11.150;2023-09-30T03:11:02;95622.72;;;18.46;58.35
67545;BME280;54380;47.770;11.150;2023-09-30T03:13:29;95625.66;;;18.49;58.01
67545;BME280;54380;47.770;11.150;2023-09-30T03:15:55;95628.84;;;18.51;57.87
67545;BME280;54380;47.770;11.150;2023-09-30T03:18:23;95628.78;;;18.56;58.18
67545;BME280;54380;47.770;11.150;2023-09-30T03:20:58;95630.09;;;18.59;57.84
67545;BME280;54380;47.770;11.150;2023-09-30T03:23:28;95631.91;;;18.63;57.83
67545;BME280;54380;47.770;11.150;2023-09-30T03:25:57;95630.56;;;18.66;57.63
67545;BME280;54380;47.770;11.150;2023-09-30T03:28:24;95631.34;;;18.67;57.65
67545;BME280;54380;47.770;11.150;2023-09-30T03:30:51;95632.94;;;18.68;57.91
67545;BME280;54380;47.770;11.150;2023-09-30T03:33:18;95644.44;;;18.68;57.54
67545;BME280;54380;47.770;11.150;2023-09-30T03:35:45;95641.25;;;18.66;57.49
67545;BME280;54380;47.770;11.150;2023-09-30T03:38:12;95647.38;;;18.67;57.58
67545;BME280;54380;47.770;11.150;2023-09-30T03:40:41;95643.34;;;18.69;57.65
67545;BME280;54380;47.770;11.150;2023-09-30T03:43:15;95643.88;;;18.71;57.90
67545;BME280;54380;47.770;11.150;2023-09-30T03:45:42;95644.97;;;18.70;57.80
67545;BME280;54380;47.770;11.150;2023-09-30T03:48:09;95645.81;;;18.65;57.84
67545;BME280;54380;47.770;11.150;2023-09-30T03:50:37;95650.41;;;18.60;57.83
67545;BME280;54380;47.770;11.150;2023-09-30T03:53:04;95641.59;;;18.59;57.67
67545;BME280;54380;47.770;11.150;2023-09-30T03:55:33;95642.91;;;18.62;57.64
67545;BME280;54380;47.770;11.150;2023-09-30T03:58:01;95653.81;;;18.65;57.49
67545;BME280;54380;47.770;11.150;2023-09-30T04:00:30;95644.97;;;18.70;57.44
67545;BME280;54380;47.770;11.150;2023-09-30T04:02:57;95638.25;;;18.73;57.38
67545;BME280;54380;47.770;11.150;2023-09-30T04:05:27;95644.94;;;18.75;57.60
67545;BME280;54380;47.770;11.150;2023-09-30T04:07:58;95649.50;;;18.75;57.23
67545;BME280;54380;47.770;11.150;2023-09-30T04:10:25;95649.50;;;18.75;57.13
67545;BME280;54380;47.770;11.150;2023-09-30T04:12:51;95644.63;;;18.77;57.32
67545;BME280;54380;47.770;11.150;2023-09-30T04:15:20;95648.13;;;18.77;57.34
67545;BME280;54380;47.770;11.150;2023-09-30T04:17:47;95654.28;;;18.78;56.95
67545;BME280;54380;47.770;11.150;2023-09-30T04:20:14;95656.94;;;18.78;56.91
67545;BME280;54380;47.770;11.150;2023-09-30T04:22:50;95662.31;;;18.78;57.02
67545;BME280;54380;47.770;11.150;2023-09-30T04:25:17;95663.88;;;18.79;56.87
67545;BME280;54380;47.770;11.150;2023-09-30T04:27:44;95671.91;;;18.79;56.88
67545;BME280;54380;47.770;11.150;2023-09-30T04:30:15;95673.22;;;18.81;56.94
67545;BME280;54380;47.770;11.150;2023-09-30T04:32:43;95673.75;;;18.83;56.94
67545;BME280;54380;47.770;11.150;2023-09-30T04:35:10;95674.25;;;18.85;56.79
67545;BME280;54380;47.770;11.150;2023-09-30T04:37:37;95674.75;;;18.88;56.48
67545;BME280;54380;47.770;11.150;2023-09-30T04:40:05;95669.41;;;18.88;56.70
67545;BME280;54380;47.770;11.150;2023-09-30T04:42:42;95672.06;;;18.88;56.65
67545;BME280;54380;47.770;11.150;2023-09-30T04:45:11;95676.94;;;18.85;56.52
67545;BME280;54380;47.770;11.150;2023-09-30T04:47:38;95679.31;;;18.87;56.50
67545;BME280;54380;47.770;11.150;2023-09-30T04:50:07;95675.84;;;18.86;56.56
67545;BME280;54380;47.770;11.150;2023-09-30T04:52:34;95688.44;;;18.86;56.64
67545;BME280;54380;47.770;11.150;2023-09-30T04:55:01;95682.56;;;18.84;56.64
67545;BME280;54380;47.770;11.150;2023-09-30T04:57:27;95687.38;;;18.82;56.50
67545;BME280;54380;47.770;11.150;2023-09-30T04:59:54;95689.28;;;18.81;56.35
67545;BME280;54380;47.770;11.150;2023-09-30T05:02:21;95684.19;;;18.80;56.45
67545;BME280;54380;47.770;11.150;2023-09-30T05:04:48;95685.00;;;18.80;56.69
67545;BME280;54380;47.770;11.150;2023-09-30T05:07:16;95690.84;;;18.82;56.67
67545;BME280;54380;47.770;11.150;2023-09-30T05:09:43;95689.78;;;18.83;56.51
67545;BME280;54380;47.770;11.150;2023-09-30T05:12:11;95690.84;;;18.82;56.59
67545;BME280;54380;47.770;11.150;2023-09-30T05:14:37;95691.94;;;18.81;56.66
67545;BME280;54380;47.770;11.150;2023-09-30T05:17:04;95691.41;;;18.79;56.65
67545;BME280;54380;47.770;11.150;2023-09-30T05:19:31;95682.09;;;18.77;57.05
67545;BME280;54380;47.770;11.150;2023-09-30T05:21:58;95679.47;;;18.67;57.17
67545;BME280;54380;47.770;11.150;2023-09-30T05:24:28;95675.81;;;18.57;57.85
67545;BME280;54380;47.770;11.150;2023-09-30T05:26:55;95673.75;;;18.49;57.84
67545;BME280;54380;47.770;11.150;2023-09-30T05:29:22;95680.47;;;18.47;57.63
67545;BME280;54380;47.770;11.150;2023-09-30T05:31:49;95683.13;;;18.47;57.62
67545;BME280;54380;47.770;11.150;2023-09-30T05:34:16;95685.50;;;18.48;57.38
67545;BME280;54380;47.770;11.150;2023-09-30T05:36:42;95695.94;;;18.50;57.72
67545;BME280;54380;47.770;11.150;2023-09-30T05:39:09;95696.16;;;18.53;57.55
67545;BME280;54380;47.770;11.150;2023-09-30T05:41:39;95689.47;;;18.56;57.26
67545;BME280;54380;47.770;11.150;2023-09-30T05:44:06;95701.78;;;18.57;57.10
67545;BME280;54380;47.770;11.150;2023-09-30T05:46:34;95713.00;;;18.59;56.91
67545;BME280;54380;47.770;11.150;2023-09-30T05:49:01;95710.81;;;18.61;57.14
67545;BME280;54380;47.770;11.150;2023-09-30T05:51:28;95720.44;;;18.62;57.06
67545;BME280;54380;47.770;11.150;2023-09-30T05:53:55;95712.13;;;18.63;57.39
67545;BME280;54380;47.770;11.150;2023-09-30T05:56:22;95715.09;;;18.62;57.42
67545;BME280;54380;47.770;11.150;2023-09-30T05:58:50;95721.81;;;18.59;57.61
67545;BME280;54380;47.770;11.150;2023-09-30T06:01:16;95717.81;;;18.57;57.70
67545;BME280;54380;47.770;11.150;2023-09-30T06:03:45;95721.31;;;18.52;58.04
67545;BME280;54380;47.770;11.150;2023-09-30T06:06:13;95717.09;;;18.46;58.18
67545;BME280;54380;47.770;11.150;2023-09-30T06:08:42;95718.44;;;18.43;57.66
67545;BME280;54380;47.770;11.150;2023-09-30T06:11:15;95725.13;;;18.46;57.53
67545;BME280;54380;47.770;11.150;2023-09-30T06:13:42;95717.59;;;18.48;57.48
67545;BME280;54380;47.770;11.150;2023-09-30T06:16:10;95719.72;;;18.51;57.43
67545;BME280;54380;47.770;11.150;2023-09-30T06:18:37;95719.97;;;18.55;57.79
67545;BME280;54380;47.770;11.150;2023-09-30T06:21:05;95724.97;;;18.61;57.52
67545;BME280;54380;47.770;11.150;2023-09-30T06:23:31;95728.69;;;18.65;57.60
67545;BME280;54380;47.770;11.150;2023-09-30T06:25:59;95729.22;;;18.68;57.61
67545;BME280;54380;47.770;11.150;2023-09-30T06:28:28;95727.59;;;18.67;57.29
67545;BME280;54380;47.770;11.150;2023-09-30T06:30:57;95729.75;;;18.70;57.18
67545;BME280;54380;47.770;11.150;2023-09-30T06:33:25;95732.63;;;18.73;57.15
67545;BME280;54380;47.770;11.150;2023-09-30T06:35:55;95738.25;;;18.77;56.74
67545;BME280;54380;47.770;11.150;2023-09-30T06:38:23;95743.03;;;18.80;56.94
67545;BME280;54380;47.770;11.150;2023-09-30T06:40:50;95750.50;;;18.83;57.17
67545;BME280;54380;47.770;11.150;2023-09-30T06:43:16;95747.03;;;18.82;57.17
67545;BME280;54380;47.770;11.150;2023-09-30T06:45:43;95743.56;;;18.82;57.75
67545;BME280;54380;47.770;11.150;2023-09-30T06:48:11;95741.75;;;18.77;58.25
67545;BME280;54380;47.770;11.150;2023-09-30T06:50:44;95752.44;;;18.72;58.15
67545;BME280;54380;47.770;11.150;2023-09-30T06:53:11;95751.41;;;18.68;58.06
67545;BME280;54380;47.770;11.150;2023-09-30T06:55:38;95753.28;;;18.68;57.66
67545;BME280;54380;47.770;11.150;2023-09-30T06:58:05;95754.88;;;18.69;57.65
67545;BME280;54380;47.770;11.150;2023-09-30T07:00:33;95747.09;;;18.72;57.42
67545;BME280;54380;47.770;11.150;2023-09-30T07:03:01;95755.38;;;18.76;57.30
67545;BME280;54380;47.770;11.150;2023-09-30T07:05:28;95763.13;;;18.77;57.00
67545;BME280;54380;47.770;11.150;2023-09-30T07:07:56;95763.06;;;18.82;57.42
67545;BME280;54380;47.770;11.150;2023-09-30T07:10:23;95770.56;;;18.85;56.90
67545;BME280;54380;47.770;11.150;2023-09-30T07:12:50;95772.66;;;18.89;56.57
67545;BME280;54380;47.770;11.150;2023-09-30T07:15:20;95775.59;;;18.87;56.51
67545;BME280;54380;47.770;11.150;2023-09-30T07:17:46;95771.56;;;18.90;56.21
67545;BME280;54380;47.770;11.150;2023-09-30T07:20:14;95768.09;;;18.89;56.24
67545;BME280;54380;47.770;11.150;2023-09-30T07:22:41;95770.00;;;18.89;56.30
67545;BME280;54380;47.770;11.150;2023-09-30T07:25:26;95790.28;;;18.90;56.12
67545;BME280;54380;47.770;11.150;2023-09-30T07:27:53;95798.06;;;18.91;55.90
67545;BME280;54380;47.770;11.150;2023-09-30T07:30:19;95788.38;;;18.95;56.05
67545;BME280;54380;47.770;11.150;2023-09-30T07:32:46;95786.97;;;19.03;56.11
67545;BME280;54380;47.770;11.150;2023-09-30T07:35:13;95785.03;;;19.08;55.91
67545;BME280;54380;47.770;11.150;2023-09-30T07:37:43;95787.66;;;19.14;55.80
67545;BME280;54380;47.770;11.150;2023-09-30T07:40:11;95805.56;;;19.18;55.34
67545;BME280;54380;47.770;11.150;2023-09-30T07:42:39;95792.72;;;19.20;55.26
67545;BME280;54380;47.770;11.150;2023-09-30T07:45:07;95794.88;;;19.18;55.30
67545;BME280;54380;47.770;11.150;2023-09-30T07:47:34;95800.16;;;19.23;55.12
67545;BME280;54380;47.770;11.150;2023-09-30T07:50:01;95808.75;;;19.20;55.29
67545;BME280;54380;47.770;11.150;2023-09-30T07:52:36;95804.47;;;19.19;55.13
67545;BME280;54380;47.770;11.150;2023-09-30T07:55:03;95812.22;;;19.21;55.30
67545;BME280;54380;47.770;11.150;2023-09-30T07:57:31;95806.34;;;19.19;55.13
67545;BME280;54380;47.770;11.150;2023-09-30T08:00:01;95812.00;;;19.17;55.15
67545;BME280;54380;47.770;11.150;2023-09-30T08:02:34;95820.59;;;19.14;55.26
67545;BME280;54380;47.770;11.150;2023-09-30T08:05:01;95809.59;;;19.16;55.50
67545;BME280;54380;47.770;11.150;2023-09-30T08:07:28;95802.88;;;19.18;55.28
67545;BME280;54380;47.770;11.150;2023-09-30T08:09:54;95817.00;;;19.24;55.40
67545;BME280;54380;47.770;11.150;2023-09-30T08:12:21;95805.69;;;19.32;55.21
67545;BME280;54380;47.770;11.150;2023-09-30T08:14:48;95801.59;;;19.40;54.99
67545;BME280;54380;47.770;11.150;2023-09-30T08:17:16;95808.00;;;19.44;54.83
67545;BME280;54380;47.770;11.150;2023-09-30T08:19:44;95811.94;;;19.51;55.11
67545;BME280;54380;47.770;11.150;2023-09-30T08:22:10;95814.50;;;19.67;54.45
67545;BME280;54380;47.770;11.150;2023-09-30T08:24:37;95819.31;;;19.89;54.49
67545;BME280;54380;47.770;11.150;2023-09-30T08:27:04;95815.09;;;20.07;53.77
67545;BME280;54380;47.770;11.150;2023-09-30T08:29:33;95812.84;;;20.14;53.31
67545;BME280;54380;47.770;11.150;2023-09-30T08:31:59;95807.53;;;20.09;53.13
67545;BME280;54380;47.770;11.150;2023-09-30T08:34:28;95818.34;;;20.04;53.47
67545;BME280;54380;47.770;11.150;2023-09-30T08:36:55;95816.72;;;20.03;53.30
67545;BME280;54380;47.770;11.150;2023-09-30T08:39:21;95813.53;;;20.01;53.84
67545;BME280;54380;47.770;11.150;2023-09-30T08:41:49;95815.16;;;20.02;53.69
67545;BME280;54380;47.770;11.150;2023-09-30T08:44:16;95801.69;;;20.07;53.78
67545;BME280;54380;47.770;11.150;2023-09-30T08:46:43;95812.03;;;20.13;53.46
67545;BME280;54380;47.770;11.150;2023-09-30T08:49:10;95817.63;;;20.17;53.13
67545;BME280;54380;47.770;11.150;2023-09-30T08:51:39;95830.59;;;20.10;53.10
67545;BME280;54380;47.770;11.150;2023-09-30T08:54:05;95821.31;;;20.02;53.25
67545;BME280;54380;47.770;11.150;2023-09-30T08:56:33;95821.38;;;19.97;53.30
67545;BME280;54380;47.770;11.150;2023-09-30T08:59:00;95812.53;;;19.97;53.52
67545;BME280;54380;47.770;11.150;2023-09-30T09:01:27;95814.06;;;20.03;53.90
67545;BME280;54380;47.770;11.150;2023-09-30T09:03:54;95822.53;;;20.10;53.87
67545;BME280;54380;47.770;11.150;2023-09-30T09:06:22;95826.75;;;20.16;53.09
67545;BME280;54380;47.770;11.150;2023-09-30T09:08:50;95820.31;;;20.17;52.63
67545;BME280;54380;47.770;11.150;2023-09-30T09:11:17;95808.84;;;20.11;53.35
67545;BME280;54380;47.770;11.150;2023-09-30T09:13:47;95810.72;;;20.11;53.46
67545;BME280;54380;47.770;11.150;2023-09-30T09:16:16;95811.19;;;20.18;53.54
67545;BME280;54380;47.770;11.150;2023-09-30T09:18:46;95812.63;;;20.29;53.57
67545;BME280;54380;47.770;11.150;2023-09-30T09:21:14;95803.06;;;20.42;53.62
67545;BME280;54380;47.770;11.150;2023-09-30T09:23:42;95801.84;;;20.53;52.99
67545;BME280;54380;47.770;11.150;2023-09-30T09:26:11;95801.78;;;20.58;52.86
67545;BME280;54380;47.770;11.150;2023-09-30T09:28:39;95798.69;;;20.70;52.66
67545;BME280;54380;47.770;11.150;2023-09-30T09:31:21;95787.63;;;20.91;52.83
67545;BME280;54380;47.770;11.150;2023-09-30T09:33:49;95786.50;;;21.24;51.84
67545;BME280;54380;47.770;11.150;2023-09-30T09:36:16;95789.34;;;21.47;51.17
67545;BME280;54380;47.770;11.150;2023-09-30T09:38:43;95782.81;;;21.67;50.94
67545;BME280;54380;47.770;11.150;2023-09-30T09:41:11;95792.16;;;21.83;49.58
67545;BME280;54380;47.770;11.150;2023-09-30T09:43:37;95801.09;;;21.92;49.98
67545;BME280;54380;47.770;11.150;2023-09-30T09:46:07;95801.47;;;22.13;49.99
67545;BME280;54380;47.770;11.150;2023-09-30T09:48:34;95798.50;;;22.29;49.50
67545;BME280;54380;47.770;11.150;2023-09-30T09:51:01;95793.19;;;22.38;49.93
67545;BME280;54380;47.770;11.150;2023-09-30T09:53:29;95791.25;;;22.52;49.38
67545;BME280;54380;47.770;11.150;2023-09-30T09:55:57;95789.47;;;22.47;48.95
67545;BME280;54380;47.770;11.150;2023-09-30T09:58:27;95781.75;;;22.32;49.17
67545;BME280;54380;47.770;11.150;2023-09-30T10:00:58;95772.50;;;22.10;48.94
67545;BME280;54380;47.770;11.150;2023-09-30T10:03:25;95768.34;;;21.90;48.97
67545;BME280;54380;47.770;11.150;2023-09-30T10:05:52;95769.75;;;21.74;49.16
67545;BME280;54380;47.770;11.150;2023-09-30T10:08:19;95763.09;;;21.58;49.40
67545;BME280;54380;47.770;11.150;2023-09-30T10:10:48;95763.69;;;21.55;49.82
67545;BME280;54380;47.770;11.150;2023-09-30T10:16:01;95769.88;;;21.83;50.17
67545;BME280;54380;47.770;11.150;2023-09-30T10:18:28;95767.25;;;21.91;49.63
67545;BME280;54380;47.770;11.150;2023-09-30T10:20:54;95757.31;;;21.92;49.98
67545;BME280;54380;47.770;11.150;2023-09-30T10:23:33;95757.78;;;22.08;49.95
67545;BME280;54380;47.770;11.150;2023-09-30T10:26:14;95760.34;;;22.27;49.45
67545;BME280;54380;47.770;11.150;2023-09-30T10:28:42;95757.44;;;22.37;49.31
67545;BME280;54380;47.770;11.150;2023-09-30T10:31:14;95756.94;;;22.35;49.09
67545;BME280;54380;47.770;11.150;2023-09-30T10:36:33;95756.09;;;22.12;48.37
67545;BME280;54380;47.770;11.150;2023-09-30T10:39:00;95749.75;;;21.94;48.85
67545;BME280;54380;47.770;11.150;2023-09-30T10:44:34;95744.44;;;22.03;49.39
67545;BME280;54380;47.770;11.150;2023-09-30T10:49:50;95747.00;;;22.22;49.08
67545;BME280;54380;47.770;11.150;2023-09-30T10:52:21;95754.38;;;22.16;48.77
67545;BME280;54380;47.770;11.150;2023-09-30T10:54:48;95754.47;;;22.11;49.04
67545;BME280;54380;47.770;11.150;2023-09-30T10:57:16;95756.59;;;22.00;48.92
67545;BME280;54380;47.770;11.150;2023-09-30T11:00:06;95758.69;;;21.89;48.76
67545;BME280;54380;47.770;11.150;2023-09-30T11:02:33;95756.31;;;21.74;49.25
67545;BME280;54380;47.770;11.150;2023-09-30T11:05:09;95765.25;;;21.69;49.54
67545;BME280;54380;47.770;11.150;2023-09-30T11:07:36;95758.50;;;21.58;49.81
67545;BME280;54380;47.770;11.150;2023-09-30T11:10:03;95757.53;;;21.54;50.14
67545;BME280;54380;47.770;11.150;2023-09-30T11:12:31;95757.63;;;21.49;50.18
67545;BME280;54380;47.770;11.150;2023-09-30T11:15:01;95758.91;;;21.38;50.39
67545;BME280;54380;47.770;11.150;2023-09-30T11:17:28;95770.59;;;21.28;50.55
67545;BME280;54380;47.770;11.150;2023-09-30T11:19:55;95769.19;;;21.17;50.75
67545;BME280;54380;47.770;11.150;2023-09-30T11:22:23;95762.13;;;21.07;51.05
67545;BME280;54380;47.770;11.150;2023-09-30T11:24:50;95753.13;;;20.98;51.22
67545;BME280;54380;47.770;11.150;2023-09-30T11:27:22;95749.47;;;20.94;51.67
67545;BME280;54380;47.770;11.150;2023-09-30T11:29:50;95731.66;;;20.98;51.58
67545;BME280;54380;47.770;11.150;2023-09-30T11:32:23;95736.50;;;21.15;51.81
67545;BME280;54380;47.770;11.150;2023-09-30T11:34:49;95723.09;;;21.42;51.93
67545;BME280;54380;47.770;11.150;2023-09-30T11:37:16;95736.22;;;21.72;51.31
67545;BME280;54380;47.770;11.150;2023-09-30T11:39:45;95739.56;;;22.05;50.34
67545;BME280;54380;47.770;11.150;2023-09-30T11:42:14;95737.81;;;22.37;49.57
67545;BME280;54380;47.770;11.150;2023-09-30T11:44:44;95728.47;;;22.56;49.11
67545;BME280;54380;47.770;11.150;2023-09-30T11:47:11;95737.28;;;22.71;48.26
67545;BME280;54380;47.770;11.150;2023-09-30T11:49:38;95737.63;;;22.78;48.49
67545;BME280;54380;47.770;11.150;2023-09-30T11:52:06;95741.00;;;22.84;47.78
67545;BME280;54380;47.770;11.150;2023-09-30T11:54:37;95744.66;;;22.88;48.02
67545;BME280;54380;47.770;11.150;2023-09-30T11:57:07;95730.41;;;22.87;47.22
67545;BME280;54380;47.770;11.150;2023-09-30T11:59:37;95731.88;;;22.93;46.70
67545;BME280;54380;47.770;11.150;2023-09-30T12:02:04;95732.44;;;23.04;46.72
67545;BME280;54380;47.770;11.150;2023-09-30T12:04:40;95723.78;;;23.16;46.43
67545;BME280;54380;47.770;11.150;2023-09-30T12:07:07;95720.59;;;23.14;46.77
67545;BME280;54380;47.770;11.150;2023-09-30T12:09:35;95716.16;;;23.09;45.49
67545;BME280;54380;47.770;11.150;2023-09-30T12:12:04;95722.47;;;23.05;46.07
67545;BME280;54380;47.770;11.150;2023-09-30T12:14:32;95720.00;;;22.94;46.29
67545;BME280;54380;47.770;11.150;2023-09-30T12:16:59;95722.94;;;22.84;47.01
67545;BME280;54380;47.770;11.150;2023-09-30T12:19:26;95712.94;;;22.76;47.22
67545;BME280;54380;47.770;11.150;2023-09-30T12:21:53;95713.19;;;22.66;46.68
67545;BME280;54380;47.770;11.150;2023-09-30T12:24:21;95711.06;;;22.54;47.13
67545;BME280;54380;47.770;11.150;2023-09-30T12:26:48;95708.91;;;22.42;46.31
67545;BME280;54380;47.770;11.150;2023-09-30T12:29:15;95710.75;;;22.33;46.44
67545;BME280;54380;47.770;11.150;2023-09-30T12:31:47;95711.31;;;22.30;46.58
67545;BME280;54380;47.770;11.150;2023-09-30T12:34:16;95699.28;;;22.27;45.72
67545;BME280;54380;47.770;11.150;2023-09-30T12:36:43;95704.97;;;22.26;46.45
67545;BME280;54380;47.770;11.150;2023-09-30T12:39:10;95696.00;;;22.30;46.85
67545;BME280;54380;47.770;11.150;2023-09-30T12:41:38;95698.56;;;22.35;45.58
67545;BME280;54380;47.770;11.150;2023-09-30T12:44:06;95690.19;;;22.37;44.50
67545;BME280;54380;47.770;11.150;2023-09-30T12:46:33;95686.22;;;22.34;44.55
67545;BME280;54380;47.770;11.150;2023-09-30T12:49:05;95685.59;;;22.38;44.20
67545;BME280;54380;47.770;11.150;2023-09-30T12:51:32;95679.81;;;22.44;45.77
67545;BME280;54380;47.770;11.150;2023-09-30T12:53:58;95675.25;;;22.53;45.26
67545;BME280;54380;47.770;11.150;2023-09-30T12:56:25;95674.19;;;22.54;45.84
67545;BME280;54380;47.770;11.150;2023-09-30T12:58:52;95668.47;;;22.56;44.47
67545;BME280;54380;47.770;11.150;2023-09-30T13:01:20;95664.69;;;22.57;44.38
67545;BME280;54380;47.770;11.150;2023-09-30T13:03:48;95668.66;;;22.60;44.97
67545;BME280;54380;47.770;11.150;2023-09-30T13:06:17;95664.06;;;22.60;45.59